Mystic, Connecticut
Current Conditions -  °F | °C
As of 8:19 PM on Thursday 27 Nov 2014 (Local Time) from KGON Reporting Station
Light Snow Light Snow  
Wind Chill: 25°   Ceiling: 4800
Heat Index: 33°   Visibility: 5mi
Dew Point: 32°   Wind: 9mph
Humidity: 96%   Direction: 340°NNW
Pressure: 30"   Gusts: NA
Location:  41.36°N, 71.95°W
Report Text: KGON 280119Z 34008KT 5SM -SN BR FEW009 BKN048 OVC055 01/00 A3000 RMK AO2 SNB19 P0000 T00060000 $
Loading
Personal Weather Stations






























Interactive Weather Map New forecast layout! Learn more

10-Day Weather Forecast

Advertisements
Track Severe Weather on mobile